Time;durP1;ratioP1;P1;durP2;ratioP2;P2;SDS_P1;SDS_P2;PMS_P1;PMS_P2;Temp;Humidity;BMP_temperature;BMP_pressure;BME280_temperature;BME280_humidity;BME280_pressure;Samples;Min_cycle;Max_cycle;Signal;HPM_P1;HPM_P2
2022/02/24 00:00:52;;;;;;;19.98;13.05;;;;;;;;;;6305230;28;20139;-63
2022/02/24 00:03:54;;;;;;;24.90;13.88;;;;;;;;;;6307284;28;20185;-64
2022/02/24 00:06:55;;;;;;;19.73;14.00;;;;;;;;;;6306905;28;20078;-65
2022/02/24 00:09:57;;;;;;;22.00;13.35;;;;;;;;;;6305459;28;20044;-63
2022/02/24 00:13:00;;;;;;;18.00;13.13;;;;;;;;;;6302870;28;20127;-62
2022/02/24 00:16:01;;;;;;;18.00;12.70;;;;;;;;;;6302762;28;20131;-65
2022/02/24 00:19:03;;;;;;;23.33;13.15;;;;;;;;;;6303571;28;20502;-62
2022/02/24 00:22:05;;;;;;;21.13;12.75;;;;;;;;;;6302273;28;20123;-65
2022/02/24 00:25:08;;;;;;;17.75;12.85;;;;;;;;;;6311796;28;20063;-64
2022/02/24 00:28:11;;;;;;;19.35;13.30;;;;;;;;;;6311740;28;20044;-64
2022/02/24 00:31:13;;;;;;;19.00;12.88;;;;;;;;;;6300651;28;20141;-62
2022/02/24 00:34:15;;;;;;;18.88;12.60;;;;;;;;;;6305785;28;20052;-65
2022/02/24 00:37:17;;;;;;;17.55;12.98;;;;;;;;;;6308303;28;20049;-64
2022/02/24 00:40:18;;;;;;;18.85;13.10;;;;;;;;;;6305089;28;20109;-66
2022/02/24 00:43:21;;;;;;;18.80;12.55;;;;;;;;;;6307665;28;20670;-65
2022/02/24 00:46:23;;;;;;;25.90;13.82;;;;;;;;;;6302924;28;20688;-63
2022/02/24 00:49:24;;;;;;;18.52;12.13;;;;;;;;;;6306017;28;20093;-63
2022/02/24 00:52:26;;;;;;;20.50;12.15;;;;;;;;;;6307916;28;20502;-62
2022/02/24 00:55:28;;;;;;;20.83;12.40;;;;;;;;;;6299485;28;20118;-63
2022/02/24 00:58:31;;;;;;;20.15;13.20;;;;;;;;;;6300040;28;20132;-63
2022/02/24 01:01:32;;;;;;;20.70;13.00;;;;;;;;;;6306785;28;20048;-63
2022/02/24 01:04:34;;;;;;;19.08;12.73;;;;;;;;;;6304947;28;20083;-62
2022/02/24 01:07:35;;;;;;;19.15;12.85;;;;;;;;;;6311373;28;20049;-63
2022/02/24 01:10:37;;;;;;;88.78;49.22;;;;;;;;;;6307544;28;20044;-63
2022/02/24 01:13:40;;;;;;;57.50;32.40;;;;;;;;;;6306141;28;20049;-62
2022/02/24 01:16:42;;;;;;;24.15;15.80;;;;;;;;;;6302361;28;20131;-63
2022/02/24 01:19:43;;;;;;;45.28;25.73;;;;;;;;;;6302362;28;20052;-62
2022/02/24 01:22:45;;;;;;;53.05;29.55;;;;;;;;;;6311245;28;20104;-63
2022/02/24 01:25:46;;;;;;;26.00;14.27;;;;;;;;;;6308414;28;20123;-63
2022/02/24 01:28:49;;;;;;;19.98;12.75;;;;;;;;;;6304612;28;20040;-63
2022/02/24 01:31:51;;;;;;;24.55;13.30;;;;;;;;;;6303254;28;20126;-63
2022/02/24 01:34:58;;;;;;;21.52;13.20;;;;;;;;;;6303188;28;20508;-63
2022/02/24 01:37:59;;;;;;;19.50;12.48;;;;;;;;;;6309040;28;20047;-62
2022/02/24 01:41:01;;;;;;;18.90;13.07;;;;;;;;;;6314127;28;20142;-66
2022/02/24 01:44:09;;;;;;;17.48;12.40;;;;;;;;;;6312955;28;20048;-63
2022/02/24 01:47:11;;;;;;;20.67;12.95;;;;;;;;;;6314174;28;20047;-63
2022/02/24 01:50:14;;;;;;;19.63;11.95;;;;;;;;;;6311569;28;20450;-62
2022/02/24 01:53:16;;;;;;;21.52;12.85;;;;;;;;;;6309982;28;20492;-65
2022/02/24 01:56:17;;;;;;;19.80;13.48;;;;;;;;;;6309714;28;20354;-63
2022/02/24 01:59:20;;;;;;;23.98;13.65;;;;;;;;;;6302904;28;20108;-63
2022/02/24 02:02:22;;;;;;;21.00;13.40;;;;;;;;;;6309280;28;20169;-63
2022/02/24 02:05:24;;;;;;;21.08;12.93;;;;;;;;;;6301718;28;20552;-63
2022/02/24 02:08:27;;;;;;;21.42;13.13;;;;;;;;;;6304770;28;20173;-62
2022/02/24 02:11:29;;;;;;;21.67;13.70;;;;;;;;;;6303727;28;20040;-63
2022/02/24 02:14:32;;;;;;;21.48;12.75;;;;;;;;;;6315067;28;20052;-63
2022/02/24 02:17:34;;;;;;;18.00;13.60;;;;;;;;;;6311498;28;20056;-63
2022/02/24 02:20:39;;;;;;;21.50;13.55;;;;;;;;;;6309711;28;20139;-62
2022/02/24 02:23:40;;;;;;;20.13;12.68;;;;;;;;;;6307488;28;20049;-62
2022/02/24 02:26:42;;;;;;;17.80;12.93;;;;;;;;;;6314481;28;20170;-62
2022/02/24 02:29:43;;;;;;;20.70;13.43;;;;;;;;;;6310064;28;20509;-62
2022/02/24 02:32:45;;;;;;;19.45;13.48;;;;;;;;;;6310923;28;20174;-63
2022/02/24 02:35:48;;;;;;;18.23;12.43;;;;;;;;;;6314851;28;20051;-63
2022/02/24 02:38:49;;;;;;;21.92;14.75;;;;;;;;;;6307846;28;20044;-62
2022/02/24 02:41:51;;;;;;;21.48;13.00;;;;;;;;;;6312154;28;20044;-63
2022/02/24 02:44:53;;;;;;;21.10;13.02;;;;;;;;;;6309995;28;20066;-63
2022/02/24 02:47:54;;;;;;;20.63;12.00;;;;;;;;;;6313319;28;20171;-64
2022/02/24 02:50:57;;;;;;;21.27;12.75;;;;;;;;;;6311326;28;20137;-64
2022/02/24 02:53:59;;;;;;;20.13;12.32;;;;;;;;;;6318355;28;20177;-62
2022/02/24 02:57:00;;;;;;;24.70;12.75;;;;;;;;;;6314541;28;20131;-62
2022/02/24 03:00:03;;;;;;;19.20;13.18;;;;;;;;;;6308520;28;20066;-62
2022/02/24 03:03:04;;;;;;;21.48;13.10;;;;;;;;;;6307520;28;20048;-62
2022/02/24 03:06:07;;;;;;;18.65;12.85;;;;;;;;;;6312066;28;20048;-63
2022/02/24 03:09:09;;;;;;;19.50;12.57;;;;;;;;;;6308105;28;20134;-62
2022/02/24 03:12:11;;;;;;;20.27;12.98;;;;;;;;;;6308872;28;20531;-62
2022/02/24 03:15:14;;;;;;;19.52;12.60;;;;;;;;;;6312396;28;20171;-63
2022/02/24 03:18:15;;;;;;;18.15;12.45;;;;;;;;;;6312972;28;20567;-63
2022/02/24 03:21:18;;;;;;;21.23;12.73;;;;;;;;;;6312029;28;20047;-63
2022/02/24 03:24:21;;;;;;;18.58;12.57;;;;;;;;;;6312104;28;20118;-63
2022/02/24 03:27:23;;;;;;;20.50;13.00;;;;;;;;;;6307855;28;20079;-63
2022/02/24 03:30:24;;;;;;;17.80;12.32;;;;;;;;;;6309568;28;20253;-63
2022/02/24 03:33:26;;;;;;;18.13;11.75;;;;;;;;;;6308705;28;20123;-63
2022/02/24 03:36:29;;;;;;;18.40;12.52;;;;;;;;;;6306833;28;20077;-63
2022/02/24 03:39:31;;;;;;;22.30;13.05;;;;;;;;;;6302494;28;20124;-63
2022/02/24 03:42:32;;;;;;;24.10;13.00;;;;;;;;;;6309801;28;20123;-63
2022/02/24 03:45:34;;;;;;;22.65;12.90;;;;;;;;;;6311793;28;20049;-63
2022/02/24 03:48:35;;;;;;;19.00;13.25;;;;;;;;;;6312502;28;20785;-63
2022/02/24 03:51:38;;;;;;;18.00;12.75;;;;;;;;;;6317389;28;20185;-63
2022/02/24 03:54:40;;;;;;;20.27;13.63;;;;;;;;;;6308576;28;20063;-63
2022/02/24 03:57:41;;;;;;;19.20;13.45;;;;;;;;;;6313217;28;20135;-62
2022/02/24 04:00:43;;;;;;;21.63;13.80;;;;;;;;;;6307713;28;20447;-63
2022/02/24 04:03:44;;;;;;;21.23;13.43;;;;;;;;;;6308835;28;20389;-63
2022/02/24 04:06:47;;;;;;;18.77;12.93;;;;;;;;;;6310533;28;20123;-63
2022/02/24 04:09:49;;;;;;;20.60;13.68;;;;;;;;;;6306340;28;20091;-63
2022/02/24 04:12:50;;;;;;;19.45;13.85;;;;;;;;;;6305340;28;20492;-63
2022/02/24 04:15:52;;;;;;;20.60;14.07;;;;;;;;;;6304834;28;20548;-63
2022/02/24 04:18:54;;;;;;;23.67;13.90;;;;;;;;;;6303464;28;20443;-63
2022/02/24 04:21:57;;;;;;;22.80;14.88;;;;;;;;;;6303505;28;20079;-62
2022/02/24 04:24:58;;;;;;;22.30;13.82;;;;;;;;;;6303205;28;20084;-63
2022/02/24 04:28:00;;;;;;;21.17;13.95;;;;;;;;;;6303696;28;20040;-63
2022/02/24 04:31:01;;;;;;;23.85;14.48;;;;;;;;;;6311096;28;20107;-62
2022/02/24 04:34:03;;;;;;;21.13;14.80;;;;;;;;;;6307251;28;20071;-63
2022/02/24 04:37:06;;;;;;;22.30;14.20;;;;;;;;;;6312709;28;20127;-63
2022/02/24 04:40:09;;;;;;;24.00;14.35;;;;;;;;;;6304866;28;20044;-63
2022/02/24 04:43:10;;;;;;;22.77;14.10;;;;;;;;;;6309628;28;20495;-63
2022/02/24 04:46:12;;;;;;;23.00;14.85;;;;;;;;;;6312536;28;20079;-63
2022/02/24 04:49:14;;;;;;;25.13;15.00;;;;;;;;;;6309811;28;20183;-63
2022/02/24 04:52:17;;;;;;;22.85;14.35;;;;;;;;;;6309678;28;20106;-63
2022/02/24 04:55:18;;;;;;;25.00;15.73;;;;;;;;;;6313567;28;20055;-63
2022/02/24 04:58:20;;;;;;;27.42;15.02;;;;;;;;;;6315330;28;20225;-63
2022/02/24 05:01:21;;;;;;;22.17;14.73;;;;;;;;;;6316695;28;20117;-64
2022/02/24 05:04:23;;;;;;;23.92;15.00;;;;;;;;;;6318955;28;20090;-64
2022/02/24 05:07:26;;;;;;;21.35;15.10;;;;;;;;;;6318393;28;20124;-63
2022/02/24 05:10:27;;;;;;;26.60;15.65;;;;;;;;;;6319917;28;20133;-63
2022/02/24 05:13:29;;;;;;;23.42;15.00;;;;;;;;;;6315410;28;20516;-61
2022/02/24 05:16:31;;;;;;;23.58;15.07;;;;;;;;;;6313510;28;20120;-63
2022/02/24 05:19:32;;;;;;;27.60;16.05;;;;;;;;;;6316464;28;20044;-63
2022/02/24 05:22:37;;;;;;;20.63;15.45;;;;;;;;;;6310390;28;20044;-63
2022/02/24 05:25:39;;;;;;;22.38;15.00;;;;;;;;;;6308214;28;20408;-63
2022/02/24 05:28:41;;;;;;;23.65;15.02;;;;;;;;;;6308862;28;20131;-64
2022/02/24 05:31:42;;;;;;;23.85;14.85;;;;;;;;;;6305373;28;20126;-63
2022/02/24 05:34:44;;;;;;;22.88;14.77;;;;;;;;;;6306577;28;20131;-63
2022/02/24 05:37:47;;;;;;;30.05;15.23;;;;;;;;;;6304546;28;20473;-63
2022/02/24 05:40:48;;;;;;;21.85;14.90;;;;;;;;;;6308354;28;20197;-63
2022/02/24 05:43:51;;;;;;;25.58;15.60;;;;;;;;;;6312995;28;20054;-64
2022/02/24 05:46:53;;;;;;;22.98;15.23;;;;;;;;;;6314264;28;20120;-64
2022/02/24 05:49:54;;;;;;;20.75;14.95;;;;;;;;;;6310885;28;20166;-63
2022/02/24 05:53:02;;;;;;;22.55;14.88;;;;;;;;;;6312186;28;20455;-64
2022/02/24 05:56:04;;;;;;;23.48;15.38;;;;;;;;;;6311651;28;20048;-63
2022/02/24 05:59:06;;;;;;;23.42;15.30;;;;;;;;;;6310959;28;20048;-63
2022/02/24 06:02:08;;;;;;;23.83;15.25;;;;;;;;;;6311607;28;20561;-63
2022/02/24 06:05:09;;;;;;;26.83;16.15;;;;;;;;;;6311715;28;20046;-63
2022/02/24 06:08:12;;;;;;;20.70;14.40;;;;;;;;;;6310625;28;20052;-63
2022/02/24 06:11:14;;;;;;;27.13;15.20;;;;;;;;;;6308078;28;20121;-63
2022/02/24 06:14:17;;;;;;;22.40;15.00;;;;;;;;;;6306174;28;20066;-64
2022/02/24 06:17:18;;;;;;;25.35;15.52;;;;;;;;;;6310251;28;20127;-63
2022/02/24 06:20:20;;;;;;;26.75;15.38;;;;;;;;;;6310528;28;20131;-63
2022/02/24 06:23:23;;;;;;;25.83;15.88;;;;;;;;;;6303467;28;20044;-64
2022/02/24 06:26:24;;;;;;;23.40;15.40;;;;;;;;;;6309518;28;20052;-63
2022/02/24 06:29:26;;;;;;;29.88;15.52;;;;;;;;;;6310607;28;20051;-63
2022/02/24 06:32:28;;;;;;;21.42;14.35;;;;;;;;;;6307168;28;20078;-64
2022/02/24 06:35:30;;;;;;;22.95;13.85;;;;;;;;;;6308278;28;20071;-65
2022/02/24 06:38:33;;;;;;;22.85;13.45;;;;;;;;;;6304753;28;20049;-64
2022/02/24 06:41:34;;;;;;;25.70;14.75;;;;;;;;;;6303999;28;20109;-65
2022/02/24 06:44:36;;;;;;;20.98;14.20;;;;;;;;;;6303972;28;20136;-65
2022/02/24 06:47:38;;;;;;;20.27;13.57;;;;;;;;;;6300666;28;20119;-65
2022/02/24 06:50:39;;;;;;;24.48;13.65;;;;;;;;;;6306514;28;20052;-64
2022/02/24 06:53:42;;;;;;;21.40;13.40;;;;;;;;;;6307974;28;20055;-65
2022/02/24 06:56:44;;;;;;;23.45;14.43;;;;;;;;;;6306809;28;20052;-64
2022/02/24 06:59:45;;;;;;;20.58;12.73;;;;;;;;;;6306417;28;20131;-64
2022/02/24 07:02:47;;;;;;;20.50;12.55;;;;;;;;;;6307027;28;20626;-64
2022/02/24 07:05:48;;;;;;;19.02;11.95;;;;;;;;;;6310386;28;20186;-65
2022/02/24 07:08:51;;;;;;;19.60;12.23;;;;;;;;;;6312572;28;20437;-64
2022/02/24 07:11:53;;;;;;;23.15;11.88;;;;;;;;;;6304861;28;20474;-64
2022/02/24 07:14:54;;;;;;;17.92;12.80;;;;;;;;;;6303009;28;20055;-64
2022/02/24 07:17:56;;;;;;;22.33;13.52;;;;;;;;;;6304333;28;20061;-66
2022/02/24 07:20:58;;;;;;;21.77;13.65;;;;;;;;;;6301876;28;20123;-64
2022/02/24 07:24:01;;;;;;;22.80;13.00;;;;;;;;;;6300350;28;20056;-65
2022/02/24 07:27:03;;;;;;;19.95;12.63;;;;;;;;;;6304917;28;20041;-65
2022/02/24 07:30:06;;;;;;;22.80;13.40;;;;;;;;;;6302677;28;20139;-65
2022/02/24 07:33:07;;;;;;;20.95;13.32;;;;;;;;;;6304619;28;20114;-68
2022/02/24 07:36:09;;;;;;;22.70;13.98;;;;;;;;;;6303643;28;20396;-66
2022/02/24 07:39:13;;;;;;;21.58;13.65;;;;;;;;;;6303938;28;20056;-66
2022/02/24 07:42:17;;;;;;;29.27;13.77;;;;;;;;;;6302019;28;20048;-65
2022/02/24 07:45:18;;;;;;;23.40;13.33;;;;;;;;;;6304287;28;20056;-66
2022/02/24 07:48:20;;;;;;;24.38;13.70;;;;;;;;;;6305155;28;20045;-65
2022/02/24 07:51:22;;;;;;;19.40;13.18;;;;;;;;;;6304724;28;20133;-66
2022/02/24 07:54:25;;;;;;;18.08;12.93;;;;;;;;;;6306162;28;20174;-66
2022/02/24 07:57:27;;;;;;;19.48;12.07;;;;;;;;;;6303586;28;20504;-66
2022/02/24 08:00:28;;;;;;;18.92;12.18;;;;;;;;;;6302132;28;20048;-66
2022/02/24 08:03:30;;;;;;;19.27;11.90;;;;;;;;;;6305220;28;20522;-66
2022/02/24 08:06:31;;;;;;;16.67;11.63;;;;;;;;;;6308984;28;20407;-66
2022/02/24 08:09:34;;;;;;;21.08;11.95;;;;;;;;;;6309059;28;20076;-65
2022/02/24 08:12:47;;;;;;;17.55;12.43;;;;;;;;;;6300532;28;20076;-66
2022/02/24 08:15:48;;;;;;;19.60;12.15;;;;;;;;;;6300953;28;20040;-65
2022/02/24 08:18:50;;;;;;;21.30;11.68;;;;;;;;;;6301376;28;20048;-67
2022/02/24 08:21:52;;;;;;;16.48;11.45;;;;;;;;;;6298252;28;20129;-66
2022/02/24 08:24:54;;;;;;;20.92;12.98;;;;;;;;;;6306456;28;20489;-66
2022/02/24 08:27:56;;;;;;;17.42;11.82;;;;;;;;;;6304943;28;20054;-66
2022/02/24 08:30:58;;;;;;;16.40;11.77;;;;;;;;;;6308705;28;20127;-67
2022/02/24 08:33:59;;;;;;;17.45;12.05;;;;;;;;;;6306698;28;20073;-65
2022/02/24 08:37:01;;;;;;;19.00;12.82;;;;;;;;;;6310500;28;20051;-65
2022/02/24 08:40:04;;;;;;;19.92;11.90;;;;;;;;;;6311128;28;20131;-65
2022/02/24 08:43:05;;;;;;;19.38;12.30;;;;;;;;;;6309226;28;20052;-66
2022/02/24 08:46:07;;;;;;;16.15;11.63;;;;;;;;;;6306016;28;20649;-66
2022/02/24 08:49:08;;;;;;;17.33;11.68;;;;;;;;;;6305360;28;20131;-67
2022/02/24 08:52:10;;;;;;;22.88;12.32;;;;;;;;;;6303396;28;20129;-66
2022/02/24 08:55:13;;;;;;;18.20;11.70;;;;;;;;;;6303730;28;20075;-66
2022/02/24 08:58:16;;;;;;;15.90;11.35;;;;;;;;;;6304580;28;20113;-66
2022/02/24 09:01:18;;;;;;;16.15;11.85;;;;;;;;;;6307319;28;20048;-66
2022/02/24 09:04:19;;;;;;;18.92;12.30;;;;;;;;;;6316457;28;20040;-66
2022/02/24 09:07:21;;;;;;;19.17;11.93;;;;;;;;;;6314566;28;20262;-66
2022/02/24 09:10:24;;;;;;;18.17;11.68;;;;;;;;;;6311540;28;20484;-64
2022/02/24 09:13:25;;;;;;;20.80;12.87;;;;;;;;;;6278068;28;1073057;-67
2022/02/24 09:16:27;;;;;;;17.98;12.55;;;;;;;;;;6312992;28;20136;-64
2022/02/24 09:19:29;;;;;;;17.15;11.60;;;;;;;;;;6311215;28;20044;-65
2022/02/24 09:22:30;;;;;;;22.52;12.55;;;;;;;;;;6309560;28;20534;-66
2022/02/24 09:25:33;;;;;;;18.40;12.77;;;;;;;;;;6307754;28;20148;-66
2022/02/24 09:28:35;;;;;;;17.55;11.68;;;;;;;;;;6307994;28;20074;-66
2022/02/24 09:31:36;;;;;;;16.27;11.90;;;;;;;;;;6306305;28;20743;-66
2022/02/24 09:34:38;;;;;;;17.80;11.80;;;;;;;;;;6306307;28;20056;-66
2022/02/24 09:37:40;;;;;;;19.52;11.80;;;;;;;;;;6300452;28;20377;-67
2022/02/24 09:40:45;;;;;;;17.75;11.43;;;;;;;;;;6300378;28;20097;-66
2022/02/24 09:43:46;;;;;;;12.73;9.90;;;;;;;;;;6306435;28;21763;-65
2022/02/24 09:46:48;;;;;;;15.82;11.23;;;;;;;;;;6318109;28;20438;-66
2022/02/24 09:49:50;;;;;;;15.02;10.73;;;;;;;;;;6315017;28;20479;-66
2022/02/24 09:52:51;;;;;;;15.30;10.15;;;;;;;;;;6314407;28;20118;-66
2022/02/24 09:55:55;;;;;;;14.18;10.15;;;;;;;;;;6308783;28;20127;-65
2022/02/24 09:58:57;;;;;;;13.32;10.07;;;;;;;;;;6304606;28;20127;-67
2022/02/24 10:01:59;;;;;;;14.35;11.10;;;;;;;;;;6308027;28;20752;-66
2022/02/24 10:05:08;;;;;;;18.17;11.70;;;;;;;;;;6308288;28;20123;-63
2022/02/24 10:08:10;;;;;;;14.38;11.07;;;;;;;;;;6304535;28;20048;-64
2022/02/24 10:11:21;;;;;;;14.98;11.25;;;;;;;;;;6307117;28;20105;-65
2022/02/24 10:14:23;;;;;;;19.17;12.07;;;;;;;;;;6299744;28;20045;-65
2022/02/24 10:17:25;;;;;;;18.48;12.32;;;;;;;;;;6304468;28;20758;-65
2022/02/24 10:20:35;;;;;;;19.70;13.27;;;;;;;;;;6309370;28;20124;-66
2022/02/24 10:23:38;;;;;;;19.88;13.18;;;;;;;;;;6304542;28;20101;-65
2022/02/24 10:26:41;;;;;;;19.08;13.45;;;;;;;;;;6313885;28;20185;-65
2022/02/24 10:29:52;;;;;;;17.43;13.10;;;;;;;;;;6313540;28;20131;-66
2022/02/24 10:32:55;;;;;;;18.80;13.20;;;;;;;;;;6309162;28;20951;-66
2022/02/24 10:35:57;;;;;;;17.45;12.73;;;;;;;;;;6312354;28;20123;-66
2022/02/24 10:39:01;;;;;;;18.88;13.07;;;;;;;;;;6310003;28;20097;-64
2022/02/24 10:42:04;;;;;;;23.20;13.27;;;;;;;;;;6306363;28;20127;-64
2022/02/24 10:45:07;;;;;;;19.80;13.67;;;;;;;;;;6304108;28;20161;-65
2022/02/24 10:48:10;;;;;;;21.60;12.73;;;;;;;;;;6302217;28;20453;-66
2022/02/24 10:51:12;;;;;;;16.30;11.68;;;;;;;;;;6304076;28;20553;-64
2022/02/24 10:54:14;;;;;;;19.60;13.40;;;;;;;;;;6311588;28;20086;-64
2022/02/24 10:57:21;;;;;;;18.67;11.35;;;;;;;;;;6313086;28;20078;-64
2022/02/24 11:00:22;;;;;;;18.13;12.25;;;;;;;;;;6309389;28;20057;-63
2022/02/24 11:03:24;;;;;;;20.85;12.60;;;;;;;;;;6311312;28;20044;-65
2022/02/24 11:06:27;;;;;;;19.90;12.68;;;;;;;;;;6315772;28;20120;-64
2022/02/24 11:09:30;;;;;;;19.40;13.40;;;;;;;;;;6310328;28;20132;-65
2022/02/24 11:12:33;;;;;;;20.03;13.43;;;;;;;;;;6306926;28;20048;-64
2022/02/24 11:15:35;;;;;;;19.27;12.43;;;;;;;;;;6305536;28;20136;-64
2022/02/24 11:18:39;;;;;;;19.63;12.93;;;;;;;;;;6304626;28;20048;-66
2022/02/24 11:21:41;;;;;;;21.70;13.30;;;;;;;;;;6304097;28;20133;-64
2022/02/24 11:24:44;;;;;;;19.45;13.20;;;;;;;;;;6300047;28;20097;-64
2022/02/24 11:27:50;;;;;;;19.63;12.68;;;;;;;;;;6299597;28;20055;-64
2022/02/24 11:30:56;;;;;;;19.67;12.52;;;;;;;;;;6299753;28;20514;-64
2022/02/24 11:33:57;;;;;;;16.90;11.75;;;;;;;;;;6304800;28;20192;-64
2022/02/24 11:36:59;;;;;;;18.70;13.13;;;;;;;;;;6307340;28;20123;-66
2022/02/24 11:40:04;;;;;;;17.95;12.68;;;;;;;;;;6299978;28;20484;-63
2022/02/24 11:43:08;;;;;;;19.25;11.93;;;;;;;;;;6300097;28;20056;-63
2022/02/24 11:46:11;;;;;;;18.17;12.50;;;;;;;;;;6305363;28;20134;-64
2022/02/24 11:49:13;;;;;;;18.63;13.35;;;;;;;;;;6307736;28;20533;-63
2022/02/24 11:52:21;;;;;;;21.30;13.35;;;;;;;;;;6301581;28;20074;-66
2022/02/24 11:55:42;;;;;;;20.15;13.90;;;;;;;;;;6306816;28;20093;-64
2022/02/24 11:58:58;;;;;;;17.85;12.88;;;;;;;;;;6307472;28;20100;-64
2022/02/24 12:02:00;;;;;;;23.15;13.73;;;;;;;;;;6308824;28;20392;-66
2022/02/24 12:05:02;;;;;;;23.43;13.97;;;;;;;;;;6308975;28;20047;-64
2022/02/24 12:08:06;;;;;;;22.65;14.45;;;;;;;;;;6309627;28;20044;-63
2022/02/24 12:11:27;;;;;;;20.90;14.05;;;;;;;;;;6306791;28;20506;-64
2022/02/24 12:14:43;;;;;;;20.20;13.48;;;;;;;;;;6306184;28;20622;-64
2022/02/24 12:17:46;;;;;;;23.10;14.48;;;;;;;;;;6300868;28;20132;-64
2022/02/24 12:20:48;;;;;;;17.90;13.73;;;;;;;;;;6301122;28;20186;-64
2022/02/24 12:23:50;;;;;;;19.75;14.40;;;;;;;;;;6295603;28;20500;-64
2022/02/24 12:26:51;;;;;;;21.17;14.98;;;;;;;;;;6302464;28;20127;-65
2022/02/24 12:30:00;;;;;;;21.17;14.10;;;;;;;;;;6302924;28;20071;-66
2022/02/24 12:33:04;;;;;;;19.85;14.95;;;;;;;;;;6304657;28;20131;-64
2022/02/24 12:36:06;;;;;;;21.25;15.15;;;;;;;;;;6302750;28;20044;-65
2022/02/24 12:39:08;;;;;;;19.52;13.80;;;;;;;;;;6308702;28;20050;-64
2022/02/24 12:42:12;;;;;;;23.80;14.85;;;;;;;;;;6307388;28;20756;-63
2022/02/24 12:45:17;;;;;;;;;;;;;;;;;;6304898;28;20061;-64
2022/02/24 12:48:19;;;;;;;25.17;16.02;;;;;;;;;;6302987;28;19921;-64
2022/02/24 12:51:24;;;;;;;22.38;15.80;;;;;;;;;;6305084;28;20128;-66
2022/02/24 12:54:27;;;;;;;22.50;15.65;;;;;;;;;;6304729;28;20058;-63
2022/02/24 12:57:29;;;;;;;23.08;15.75;;;;;;;;;;6299361;28;20129;-65
2022/02/24 13:00:35;;;;;;;23.88;16.88;;;;;;;;;;6302423;28;20129;-65
2022/02/24 13:03:37;;;;;;;23.38;15.77;;;;;;;;;;6302609;28;20123;-66
2022/02/24 13:06:39;;;;;;;24.65;16.98;;;;;;;;;;6314100;28;20109;-63
2022/02/24 13:09:46;;;;;;;20.92;15.25;;;;;;;;;;6311157;28;20055;-63
2022/02/24 13:12:48;;;;;;;27.23;17.40;;;;;;;;;;6315828;28;20086;-65
2022/02/24 13:15:51;;;;;;;24.60;18.08;;;;;;;;;;6309629;28;20048;-63
2022/02/24 13:18:54;;;;;;;24.95;16.95;;;;;;;;;;6310249;28;20473;-64
2022/02/24 13:21:58;;;;;;;25.15;16.52;;;;;;;;;;6310340;28;20394;-64
2022/02/24 13:25:00;;;;;;;27.02;17.02;;;;;;;;;;6306729;28;20127;-63
2022/02/24 13:28:02;;;;;;;26.33;17.55;;;;;;;;;;6307983;28;20440;-65
2022/02/24 13:31:06;;;;;;;24.55;17.08;;;;;;;;;;6307930;28;20047;-66
2022/02/24 13:34:14;;;;;;;24.10;17.08;;;;;;;;;;6310434;28;20160;-64
2022/02/24 13:37:15;;;;;;;23.70;17.77;;;;;;;;;;6304271;28;20067;-68
2022/02/24 13:40:17;;;;;;;25.48;19.30;;;;;;;;;;6299784;28;20250;-66
2022/02/24 13:43:19;;;;;;;24.55;18.65;;;;;;;;;;6299898;28;20051;-65
2022/02/24 13:46:22;;;;;;;25.02;17.77;;;;;;;;;;6312345;28;20069;-63
2022/02/24 13:49:32;;;;;;;24.23;17.20;;;;;;;;;;6313905;28;20078;-65
2022/02/24 13:52:36;;;;;;;27.80;17.55;;;;;;;;;;6317137;28;20040;-64
2022/02/24 13:55:38;;;;;;;26.98;18.55;;;;;;;;;;6311814;28;20048;-64
2022/02/24 13:58:41;;;;;;;31.20;19.00;;;;;;;;;;6309099;28;20137;-63
2022/02/24 14:01:50;;;;;;;27.38;19.00;;;;;;;;;;6310254;28;20113;-62
2022/02/24 14:04:52;;;;;;;29.38;19.98;;;;;;;;;;6311567;28;20573;-64
2022/02/24 14:07:59;;;;;;;30.83;19.90;;;;;;;;;;6307940;28;20054;-64
2022/02/24 14:11:06;;;;;;;36.03;20.63;;;;;;;;;;6307873;28;20064;-64
2022/02/24 14:14:07;;;;;;;30.95;21.02;;;;;;;;;;6310243;28;20170;-64
2022/02/24 14:17:10;;;;;;;30.10;19.58;;;;;;;;;;6304166;28;20415;-63
2022/02/24 14:20:15;;;;;;;32.03;20.35;;;;;;;;;;6301082;28;20630;-64
2022/02/24 14:23:17;;;;;;;31.58;21.65;;;;;;;;;;6312827;28;20052;-63
2022/02/24 14:26:20;;;;;;;28.23;20.00;;;;;;;;;;6314211;28;20058;-64
2022/02/24 14:29:22;;;;;;;32.07;20.20;;;;;;;;;;6313788;28;20048;-64
2022/02/24 14:32:25;;;;;;;27.63;19.40;;;;;;;;;;6310908;28;20487;-64
2022/02/24 14:35:27;;;;;;;28.63;21.17;;;;;;;;;;6309287;28;20052;-64
2022/02/24 14:38:28;;;;;;;33.97;21.90;;;;;;;;;;6308524;28;20127;-64
2022/02/24 14:41:30;;;;;;;31.75;22.45;;;;;;;;;;6308415;28;20048;-64
2022/02/24 14:44:31;;;;;;;33.20;21.00;;;;;;;;;;6306267;28;20134;-64
2022/02/24 14:47:35;;;;;;;33.50;20.77;;;;;;;;;;6306077;28;20071;-64
2022/02/24 14:50:37;;;;;;;27.40;19.75;;;;;;;;;;6307880;28;20170;-63
2022/02/24 14:53:39;;;;;;;29.88;21.05;;;;;;;;;;6307541;28;20701;-64
2022/02/24 14:56:41;;;;;;;31.55;20.65;;;;;;;;;;6310452;28;20652;-63
2022/02/24 14:59:43;;;;;;;28.90;20.45;;;;;;;;;;6313089;28;20133;-66
2022/02/24 15:02:46;;;;;;;30.30;21.52;;;;;;;;;;6309373;28;20119;-64
2022/02/24 15:05:47;;;;;;;29.87;20.50;;;;;;;;;;6304932;28;20482;-64
2022/02/24 15:08:49;;;;;;;30.10;21.05;;;;;;;;;;6310266;28;20052;-63
2022/02/24 15:11:50;;;;;;;30.63;21.90;;;;;;;;;;6306662;28;20100;-65
2022/02/24 15:14:52;;;;;;;29.27;20.48;;;;;;;;;;6304027;28;20125;-65
2022/02/24 15:17:58;;;;;;;30.40;20.75;;;;;;;;;;6304720;28;20173;-65
2022/02/24 15:20:59;;;;;;;30.75;20.73;;;;;;;;;;6304451;28;20044;-65
2022/02/24 15:24:01;;;;;;;28.17;20.35;;;;;;;;;;6301163;28;20041;-65
2022/02/24 15:27:02;;;;;;;28.80;21.13;;;;;;;;;;6298107;28;20127;-65
2022/02/24 15:30:05;;;;;;;32.42;22.23;;;;;;;;;;6294427;28;20377;-65
2022/02/24 15:33:08;;;;;;;31.27;21.05;;;;;;;;;;6296902;28;20124;-64
2022/02/24 15:36:10;;;;;;;34.15;21.25;;;;;;;;;;6302714;28;20729;-64
2022/02/24 15:39:11;;;;;;;31.15;22.58;;;;;;;;;;6304519;28;20056;-64
2022/02/24 15:42:13;;;;;;;31.42;22.10;;;;;;;;;;6296400;28;20513;-65
2022/02/24 15:45:15;;;;;;;34.05;22.42;;;;;;;;;;6302861;28;20123;-64
2022/02/24 15:48:18;;;;;;;35.05;22.50;;;;;;;;;;6302324;28;20071;-66
2022/02/24 15:51:20;;;;;;;31.30;21.40;;;;;;;;;;6303146;28;20487;-65
2022/02/24 15:54:21;;;;;;;30.30;22.08;;;;;;;;;;6301540;28;20123;-65
2022/02/24 15:57:23;;;;;;;33.55;21.77;;;;;;;;;;6300685;28;20052;-65
2022/02/24 16:00:25;;;;;;;31.67;21.55;;;;;;;;;;6301508;28;20048;-64
2022/02/24 16:03:27;;;;;;;33.38;21.98;;;;;;;;;;6304655;28;20488;-66
2022/02/24 16:06:29;;;;;;;33.03;20.55;;;;;;;;;;6303034;28;20135;-64
2022/02/24 16:09:31;;;;;;;39.17;20.70;;;;;;;;;;6315837;27;20172;-64
2022/02/24 16:12:33;;;;;;;29.05;19.20;;;;;;;;;;6303693;28;20056;-65
2022/02/24 16:15:34;;;;;;;32.42;20.48;;;;;;;;;;6302064;28;20044;-65
2022/02/24 16:18:37;;;;;;;30.83;20.35;;;;;;;;;;6304774;28;20590;-65
2022/02/24 16:21:39;;;;;;;31.27;20.47;;;;;;;;;;6300541;28;20535;-64
2022/02/24 16:24:42;;;;;;;36.38;22.02;;;;;;;;;;6302040;28;20758;-65
2022/02/24 16:27:44;;;;;;;32.30;22.38;;;;;;;;;;6302099;28;20433;-65
2022/02/24 16:30:45;;;;;;;31.63;21.73;;;;;;;;;;6306341;28;20533;-63
2022/02/24 16:33:48;;;;;;;32.67;21.33;;;;;;;;;;6298566;28;20466;-65
2022/02/24 16:36:50;;;;;;;30.67;20.30;;;;;;;;;;6300811;28;20416;-63
2022/02/24 16:39:51;;;;;;;31.73;19.83;;;;;;;;;;6301122;28;20036;-63
2022/02/24 16:42:54;;;;;;;37.97;18.30;;;;;;;;;;6306589;28;20556;-63
2022/02/24 16:45:55;;;;;;;28.73;18.33;;;;;;;;;;6309600;28;20052;-63
2022/02/24 16:48:58;;;;;;;31.40;17.60;;;;;;;;;;6310504;28;20563;-63
2022/02/24 16:52:00;;;;;;;26.05;16.77;;;;;;;;;;6310254;28;20063;-64
2022/02/24 16:55:02;;;;;;;25.70;16.65;;;;;;;;;;6310605;28;20135;-64
2022/02/24 16:58:03;;;;;;;26.05;17.45;;;;;;;;;;6310056;28;20044;-63
2022/02/24 17:01:05;;;;;;;30.02;17.83;;;;;;;;;;6305588;28;20072;-64
2022/02/24 17:04:08;;;;;;;37.00;21.33;;;;;;;;;;6313080;28;20442;-64
2022/02/24 17:07:10;;;;;;;35.83;24.00;;;;;;;;;;6313610;28;20608;-64
2022/02/24 17:10:11;;;;;;;38.58;23.77;;;;;;;;;;6305937;28;20582;-64
2022/02/24 17:13:13;;;;;;;37.90;25.25;;;;;;;;;;6309167;28;20675;-65
2022/02/24 17:16:15;;;;;;;37.38;24.83;;;;;;;;;;6309826;28;20081;-64
2022/02/24 17:19:18;;;;;;;39.55;24.45;;;;;;;;;;6312061;28;20047;-65
2022/02/24 17:22:20;;;;;;;46.07;27.07;;;;;;;;;;6310832;28;20075;-65
2022/02/24 17:25:23;;;;;;;38.63;25.55;;;;;;;;;;6309468;28;20123;-65
2022/02/24 17:28:25;;;;;;;39.70;26.45;;;;;;;;;;6309151;28;20429;-66
2022/02/24 17:31:26;;;;;;;42.50;27.38;;;;;;;;;;6308237;28;20137;-65
2022/02/24 17:34:29;;;;;;;38.03;25.13;;;;;;;;;;6309348;28;20073;-65
2022/02/24 17:37:31;;;;;;;42.90;26.80;;;;;;;;;;6307911;28;20173;-65
2022/02/24 17:40:32;;;;;;;44.20;27.02;;;;;;;;;;6311743;28;20092;-66